Aérodrome :
LOGIN :

S'inscrire | Disclaimer

   EN    FR    IT 

 










Légende :    VFR   VFR Marginal   IFR   IFR Intensif   IFR Très Intensif
Visi : 
Plafond : 
>= 8 km
>= 3000ft
5 à 8 km
1000 à 3000 ft
1500m à 5 km
500 à 1000 ft
800 à 1500m
200 à 500 ft
< 800m
< 200 ft
Symboles :   Orages  Brouillard  Fortes neiges  Fortes précipitations  Vent > 20 kt
SIGMETs :   Divers  Orages  Givrage  Turbulence  Onde Orograph.  Cendres Volcan.







- Altitude de l'aérodrome : 1090 ft
- Code IATA : CFE
- Voir les cartes d'approche


LFLC - Clermont-Ferrand Auvergne

DERNIER METAR :
  • 161300Z AUTO 16006KT 080V200 CAVOK 19/M10 Q1026 NOSIG

METARs EXPIRÉS :
  • 161230Z AUTO 17005KT 120V200 CAVOK 18/M08 Q1026 NOSIG
  • 161200Z AUTO 16007KT 120V190 CAVOK 18/M11 Q1027 NOSIG
  • 161130Z AUTO 16004KT 090V230 CAVOK 16/M09 Q1027 NOSIG
  • 161100Z AUTO VRB01KT CAVOK 15/M08 Q1028 NOSIG
  • 161030Z AUTO VRB01KT CAVOK 13/M07 Q1028 NOSIG

TAF TAF LFLC
Valide du 16 à 09h jusqu'au 17 à 09h UTC


160800Z 1609/1709 18007KT CAVOK
TEMPO 1615/1621 VRB03KT
PROB40
TEMPO 1706/1709 18015G25KT
ATIS : +33 4 73 62 74 38
Pas de NOTAMs connus pour ce terrain.



MET'MAP, la Météo Aéronautique d'un coup d'oeil ! - Copyright ORBIFLY Décembre 2007 - Disclaimer

ORBIFLY MET'MAP TEAM :

Programmation & Développement : Alexandra Zaïnal
Conception & Développement : Baudouin d'Aumeries
Co-Programmation & Développement : Marc-Olivier Méhu
Soutien technique & logistique : Manuel Goepfert

Contact : metmap@orbifly.com




SOURCES & CREDITS :

   NOAA